createdAt,value
2019-01-11T00:01:16.475Z,18.53
2019-01-11T00:03:46.836Z,18.87
2019-01-11T00:06:17.122Z,18.63
2019-01-11T00:08:47.423Z,17.37
2019-01-11T00:11:17.726Z,17.83
2019-01-11T00:13:50.106Z,18.23
2019-01-11T00:16:20.503Z,18.43
2019-01-11T00:18:51.245Z,18.10
2019-01-11T00:21:21.540Z,18.57
2019-01-11T00:23:51.776Z,18.20
2019-01-11T00:26:22.168Z,17.47
2019-01-11T00:28:52.479Z,17.50
2019-01-11T00:31:22.823Z,17.97
2019-01-11T00:33:53.382Z,17.00
2019-01-11T00:36:23.883Z,18.70
2019-01-11T00:38:54.141Z,17.47
2019-01-11T00:41:24.429Z,17.27
2019-01-11T00:43:54.763Z,19.90
2019-01-11T00:46:25.116Z,17.20
2019-01-11T00:48:55.714Z,17.30
2019-01-11T00:51:26.305Z,17.27
2019-01-11T00:53:56.583Z,16.97
2019-01-11T00:56:27.174Z,15.60
2019-01-11T00:58:57.655Z,15.40
2019-01-11T01:01:27.946Z,16.20
2019-01-11T01:04:00.852Z,15.63
2019-01-11T01:06:31.253Z,15.87
2019-01-11T01:09:01.988Z,15.27
2019-01-11T01:11:32.290Z,15.70
2019-01-11T01:14:02.559Z,14.73
2019-01-11T01:16:32.910Z,14.17
2019-01-11T01:19:03.159Z,13.70
2019-01-11T01:21:33.447Z,13.00
2019-01-11T01:24:04.102Z,13.17
2019-01-11T01:26:34.744Z,12.83
2019-01-11T01:29:05.175Z,13.70
2019-01-11T01:31:35.532Z,13.17
2019-01-11T01:34:05.875Z,13.03
2019-01-11T01:36:36.422Z,14.60
2019-01-11T01:39:09.012Z,14.93
2019-01-11T01:41:39.328Z,14.03
2019-01-11T01:44:10.497Z,13.58
2019-01-11T01:46:40.825Z,13.57
2019-01-11T01:49:11.104Z,16.67
2019-01-11T01:51:41.538Z,14.18
2019-01-11T01:54:11.798Z,13.87
2019-01-11T01:56:42.168Z,14.47
2019-01-11T01:59:12.530Z,14.60
2019-01-11T02:01:42.828Z,14.57
2019-01-11T02:04:13.405Z,13.90
2019-01-11T02:06:43.678Z,13.37
2019-01-11T02:09:14.025Z,15.37
2019-01-11T02:11:44.316Z,14.93
2019-01-11T02:14:14.618Z,15.97
2019-01-11T02:16:44.932Z,17.23
2019-01-11T02:19:15.590Z,15.50
2019-01-11T02:21:45.897Z,15.67
2019-01-11T02:24:16.236Z,16.75
2019-01-11T02:26:46.537Z,15.60
2019-01-11T02:29:16.854Z,18.93
2019-01-11T02:31:47.679Z,18.87
2019-01-11T02:34:18.016Z,16.90
2019-01-11T02:36:48.825Z,17.93
2019-01-11T02:39:19.310Z,18.90
2019-01-11T02:41:56.176Z,19.53
2019-01-11T02:44:26.523Z,18.83
2019-01-11T02:46:56.829Z,21.37
2019-01-11T02:49:27.142Z,21.03
2019-01-11T02:51:57.425Z,20.47
2019-01-11T02:54:27.814Z,18.10
2019-01-11T02:56:58.083Z,18.77
2019-01-11T02:59:28.381Z,19.17
2019-01-11T03:01:58.677Z,22.87
2019-01-11T03:04:29.008Z,23.23
2019-01-11T03:06:59.336Z,21.97
2019-01-11T03:09:29.615Z,20.73
2019-01-11T03:11:59.865Z,21.37
2019-01-11T03:14:30.294Z,23.20
2019-01-11T03:17:00.606Z,23.00
2019-01-11T03:19:30.968Z,24.10
2019-01-11T03:22:01.539Z,22.30
2019-01-11T03:24:31.881Z,25.60
2019-01-11T03:27:02.244Z,22.60
2019-01-11T03:29:32.537Z,25.03
2019-01-11T03:32:03.103Z,24.77
2019-01-11T03:34:35.068Z,24.63
2019-01-11T03:37:05.417Z,25.57
2019-01-11T03:39:35.955Z,27.80
2019-01-11T03:42:12.479Z,27.70
2019-01-11T03:44:42.761Z,26.20
2019-01-11T03:47:13.104Z,29.70
2019-01-11T03:49:44.563Z,27.80
2019-01-11T03:52:14.900Z,25.63
2019-01-11T03:54:45.204Z,28.60
2019-01-11T03:57:15.490Z,30.07
2019-01-11T03:59:46.152Z,29.97
2019-01-11T04:02:16.499Z,27.10
2019-01-11T04:04:46.814Z,28.47
2019-01-11T04:07:17.165Z,28.05
2019-01-11T04:09:47.778Z,31.20
2019-01-11T04:12:18.343Z,31.60
2019-01-11T04:14:48.662Z,29.73
2019-01-11T04:17:18.908Z,32.63
2019-01-11T04:19:49.214Z,31.97
2019-01-11T04:22:26.219Z,32.00
2019-01-11T04:25:07.271Z,30.43
2019-01-11T04:27:37.928Z,31.07
2019-01-11T04:30:18.669Z,35.03
2019-01-11T04:32:48.994Z,31.60
2019-01-11T04:35:19.348Z,31.93
2019-01-11T04:37:49.650Z,33.07
2019-01-11T04:40:21.022Z,36.37
2019-01-11T04:42:51.712Z,34.63
2019-01-11T04:45:22.028Z,32.93
2019-01-11T04:47:52.320Z,35.70
2019-01-11T04:50:22.550Z,35.90
2019-01-11T04:52:53.078Z,33.30
2019-01-11T04:55:23.593Z,33.98
2019-01-11T04:57:53.885Z,36.97
2019-01-11T05:00:25.187Z,37.93
2019-01-11T05:02:55.482Z,34.93
2019-01-11T05:05:26.032Z,36.37
2019-01-11T05:07:56.384Z,42.80
2019-01-11T05:10:26.695Z,41.30
2019-01-11T05:12:58.682Z,39.87
2019-01-11T05:15:28.962Z,37.90
2019-01-11T05:17:59.287Z,40.60
2019-01-11T05:20:30.083Z,36.77
2019-01-11T05:23:00.378Z,46.60
2019-01-11T05:25:30.653Z,38.38
2019-01-11T05:28:01.029Z,39.93
2019-01-11T05:30:31.367Z,40.13
2019-01-11T05:33:01.673Z,43.63
2019-01-11T05:35:31.889Z,43.53
2019-01-11T05:38:02.192Z,45.73
2019-01-11T05:40:32.999Z,42.03
2019-01-11T05:43:03.293Z,42.78
2019-01-11T05:45:33.601Z,44.40
2019-01-11T05:48:03.914Z,44.10
2019-01-11T05:50:34.248Z,47.40
2019-01-11T05:53:04.755Z,43.37
2019-01-11T05:55:53.985Z,47.77
2019-01-11T05:58:32.098Z,47.60
2019-01-11T06:01:02.702Z,48.87
2019-01-11T06:03:33.132Z,52.33
2019-01-11T06:06:03.692Z,54.53
2019-01-11T06:08:34.335Z,53.53
2019-01-11T06:11:04.935Z,56.27
2019-01-11T06:13:35.271Z,50.70
2019-01-11T06:16:06.103Z,56.70
2019-01-11T06:18:36.362Z,52.03
2019-01-11T06:21:06.759Z,49.87
2019-01-11T06:23:37.086Z,51.05
2019-01-11T06:26:07.450Z,46.73
2019-01-11T06:28:37.699Z,52.30
2019-01-11T06:31:07.996Z,47.93
2019-01-11T06:33:38.323Z,45.75
2019-01-11T06:36:08.623Z,48.53
2019-01-11T06:38:39.009Z,50.57
2019-01-11T06:41:09.399Z,58.60
2019-01-11T06:43:40.263Z,54.30
2019-01-11T06:46:10.958Z,52.33
2019-01-11T06:48:42.455Z,49.83
2019-01-11T06:51:12.895Z,50.43
2019-01-11T06:53:48.051Z,48.87
2019-01-11T06:56:18.866Z,45.90
2019-01-11T06:58:49.205Z,58.73
2019-01-11T07:01:19.534Z,54.97
2019-01-11T07:03:49.874Z,52.13
2019-01-11T07:06:20.168Z,53.07
2019-01-11T07:08:50.498Z,44.57
2019-01-11T07:11:20.812Z,45.83
2019-01-11T07:13:51.107Z,47.80
2019-01-11T07:16:21.465Z,50.47
2019-01-11T07:18:52.141Z,44.10
2019-01-11T07:21:22.451Z,52.08
2019-01-11T07:23:52.818Z,49.90
2019-01-11T07:26:23.504Z,47.03
2019-01-11T07:28:53.761Z,49.37
2019-01-11T07:31:26.956Z,60.63
2019-01-11T07:33:58.646Z,46.68
2019-01-11T07:36:40.403Z,49.17
2019-01-11T07:39:27.017Z,45.63
2019-01-11T07:41:58.323Z,51.73
2019-01-11T07:44:28.814Z,49.30
2019-01-11T07:46:59.556Z,50.57
2019-01-11T07:49:30.086Z,50.83
2019-01-11T07:52:00.356Z,49.53
2019-01-11T07:54:30.639Z,50.63
2019-01-11T07:57:01.061Z,47.50
2019-01-11T07:59:31.311Z,50.95
2019-01-11T08:02:01.573Z,45.33
2019-01-11T08:04:32.239Z,49.00
2019-01-11T08:07:02.615Z,42.55
2019-01-11T08:09:33.011Z,52.17
2019-01-11T08:12:03.307Z,39.55
2019-01-11T08:14:33.872Z,39.57
2019-01-11T08:17:04.159Z,45.60
2019-01-11T08:19:34.608Z,37.23
2019-01-11T08:22:04.985Z,37.43
2019-01-11T08:24:35.284Z,37.60
2019-01-11T08:27:05.655Z,37.93
2019-01-11T08:29:36.009Z,31.57
2019-01-11T08:32:06.286Z,37.70
2019-01-11T08:34:36.609Z,27.02
2019-01-11T08:37:06.890Z,28.23
2019-01-11T08:39:37.205Z,30.97
2019-01-11T08:42:07.505Z,30.13
2019-01-11T08:44:37.788Z,29.50
2019-01-11T08:47:08.113Z,30.85
2019-01-11T08:49:39.038Z,27.07
2019-01-11T08:52:09.352Z,26.07
2019-01-11T08:54:39.679Z,29.37
2019-01-11T08:57:10.251Z,30.30
2019-01-11T08:59:40.619Z,30.23
2019-01-11T09:02:10.972Z,24.67
2019-01-11T09:04:41.284Z,26.65
2019-01-11T09:07:11.533Z,18.52
2019-01-11T09:09:41.871Z,24.60
2019-01-11T09:12:15.187Z,18.27
2019-01-11T09:14:47.882Z,25.73
2019-01-11T09:17:19.473Z,17.00
2019-01-11T09:19:49.803Z,17.00
2019-01-11T09:22:20.482Z,23.40
2019-01-11T09:24:50.760Z,21.37
2019-01-11T09:27:21.131Z,17.85
2019-01-11T09:29:51.450Z,21.20
2019-01-11T09:32:22.098Z,19.83
2019-01-11T09:34:53.729Z,20.07
2019-01-11T09:37:23.967Z,18.55
2019-01-11T09:39:54.550Z,18.60
2019-01-11T09:42:24.738Z,16.77
2019-01-11T09:44:55.222Z,21.37
2019-01-11T09:47:25.900Z,18.97
2019-01-11T09:49:56.653Z,18.20
2019-01-11T09:52:27.221Z,15.37
2019-01-11T09:54:57.522Z,24.13
2019-01-11T09:57:28.052Z,15.70
2019-01-11T09:59:58.721Z,16.57
2019-01-11T10:02:40.237Z,14.77
2019-01-11T10:05:11.773Z,12.15
2019-01-11T10:07:42.105Z,15.23
2019-01-11T10:10:15.159Z,15.43
2019-01-11T10:12:45.469Z,13.77
2019-01-11T10:15:16.557Z,14.75
2019-01-11T10:17:49.288Z,13.63
2019-01-11T10:20:19.981Z,11.57
2019-01-11T10:22:50.239Z,12.70
2019-01-11T10:25:21.430Z,12.60
2019-01-11T10:27:51.822Z,10.23
2019-01-11T10:30:23.655Z,18.07
2019-01-11T10:32:55.910Z,11.90
2019-01-11T10:35:26.336Z,14.93
2019-01-11T10:37:56.611Z,14.20
2019-01-11T10:40:26.859Z,13.00
2019-01-11T10:42:57.741Z,9.90
2019-01-11T10:45:28.029Z,13.03
2019-01-11T10:47:59.011Z,9.13
2019-01-11T10:50:29.285Z,5.97
2019-01-11T10:52:59.596Z,8.40
2019-01-11T10:55:29.942Z,8.90
2019-01-11T10:58:00.245Z,8.13
2019-01-11T11:00:31.529Z,9.05
2019-01-11T11:03:01.833Z,8.20
2019-01-11T11:05:32.473Z,8.83
2019-01-11T11:08:03.090Z,8.60
2019-01-11T11:10:33.406Z,7.07
2019-01-11T11:13:03.697Z,8.90
2019-01-11T11:15:34.110Z,14.13
2019-01-11T11:18:04.741Z,12.37
2019-01-11T11:20:35.031Z,9.90
2019-01-11T11:23:05.353Z,12.60
2019-01-11T11:25:35.697Z,15.37
2019-01-11T11:28:06.011Z,10.97
2019-01-11T11:30:36.287Z,11.20
2019-01-11T11:33:06.717Z,9.07
2019-01-11T11:35:37.029Z,12.77
2019-01-11T11:38:07.702Z,14.10
2019-01-11T11:40:37.950Z,13.00
2019-01-11T11:43:08.203Z,8.90
2019-01-11T11:45:38.736Z,7.77
2019-01-11T11:48:09.028Z,8.43
2019-01-11T11:50:39.351Z,11.20
2019-01-11T11:53:17.586Z,13.97
2019-01-11T11:55:47.873Z,9.53
2019-01-11T11:58:18.156Z,9.77
2019-01-11T12:00:48.534Z,11.67
2019-01-11T12:03:18.861Z,9.33
2019-01-11T12:05:49.457Z,9.70
2019-01-11T12:08:19.732Z,11.20
2019-01-11T12:10:50.040Z,6.25
2019-01-11T12:13:20.331Z,11.30
2019-01-11T12:15:50.609Z,10.63
2019-01-11T12:18:20.875Z,11.40
2019-01-11T12:20:51.235Z,8.10
2019-01-11T12:23:21.914Z,8.40
2019-01-11T12:25:52.303Z,7.80
2019-01-11T12:28:22.602Z,6.00
2019-01-11T12:30:52.886Z,12.05
2019-01-11T12:33:23.530Z,7.97
2019-01-11T12:35:53.863Z,8.63
2019-01-11T12:38:24.531Z,10.43
2019-01-11T12:40:54.846Z,8.17
2019-01-11T12:43:25.140Z,6.17
2019-01-11T12:45:55.425Z,6.93
2019-01-11T12:48:25.740Z,7.47
2019-01-11T12:50:56.007Z,10.70
2019-01-11T12:53:26.331Z,10.47
2019-01-11T12:55:56.643Z,9.40
2019-01-11T12:58:26.913Z,14.23
2019-01-11T13:00:57.224Z,11.53
2019-01-11T13:03:27.542Z,10.27
2019-01-11T13:05:57.798Z,6.28
2019-01-11T13:08:28.142Z,9.10
2019-01-11T13:10:58.372Z,10.70
2019-01-11T13:13:28.672Z,13.03
2019-01-11T13:15:59.030Z,12.03
2019-01-11T13:18:29.790Z,12.87
2019-01-11T13:21:00.473Z,12.47
2019-01-11T13:23:30.731Z,13.53
2019-01-11T13:26:01.086Z,10.83
2019-01-11T13:28:31.374Z,16.23
2019-01-11T13:31:01.778Z,13.73
2019-01-11T13:33:32.667Z,14.13
2019-01-11T13:36:04.885Z,17.20
2019-01-11T13:38:35.165Z,12.20
2019-01-11T13:41:05.747Z,17.70
2019-01-11T13:43:37.301Z,16.80
2019-01-11T13:46:07.650Z,19.63
2019-01-11T13:48:37.941Z,18.00
2019-01-11T13:51:08.230Z,17.50
2019-01-11T13:53:38.611Z,14.30
2019-01-11T13:56:08.912Z,18.40
2019-01-11T13:58:39.276Z,20.13
2019-01-11T14:01:09.589Z,19.07
2019-01-11T14:03:39.926Z,17.00
2019-01-11T14:06:10.220Z,22.80
2019-01-11T14:08:40.896Z,15.23
2019-01-11T14:11:11.253Z,17.50
2019-01-11T14:13:41.521Z,20.50
2019-01-11T14:16:11.862Z,15.33
2019-01-11T14:18:42.206Z,21.33
2019-01-11T14:21:12.540Z,18.07
2019-01-11T14:23:42.859Z,17.90
2019-01-11T14:26:13.186Z,26.07
2019-01-11T14:28:43.526Z,18.65
2019-01-11T14:31:13.818Z,21.33
2019-01-11T14:33:44.146Z,16.85
2019-01-11T14:36:14.591Z,20.00
2019-01-11T14:38:44.875Z,26.00
2019-01-11T14:41:16.023Z,22.33
2019-01-11T14:43:46.723Z,29.42
2019-01-11T14:46:17.014Z,22.23
2019-01-11T14:48:47.375Z,21.87
2019-01-11T14:51:17.645Z,22.90
2019-01-11T14:53:47.964Z,27.80
2019-01-11T14:56:18.211Z,20.67
2019-01-11T14:58:48.469Z,20.57
2019-01-11T15:01:18.680Z,23.95
2019-01-11T15:03:49.270Z,32.87
2019-01-11T15:06:19.523Z,24.53
2019-01-11T15:08:49.849Z,34.83
2019-01-11T15:11:20.144Z,26.63
2019-01-11T15:13:50.433Z,27.20
2019-01-11T15:16:20.695Z,32.17
2019-01-11T15:18:50.958Z,32.33
2019-01-11T15:21:21.265Z,31.40
2019-01-11T15:23:51.533Z,25.93
2019-01-11T15:26:21.869Z,33.33
2019-01-11T15:28:52.136Z,33.20
2019-01-11T15:31:22.468Z,30.07
2019-01-11T15:33:52.736Z,30.67
2019-01-11T15:36:23.204Z,26.70
2019-01-11T15:38:53.489Z,26.90
2019-01-11T15:41:23.817Z,29.23
2019-01-11T15:43:54.148Z,27.93
2019-01-11T15:46:24.699Z,31.20
2019-01-11T15:48:55.176Z,25.83
2019-01-11T15:51:29.988Z,28.50
2019-01-11T15:54:01.814Z,34.03
2019-01-11T15:56:32.066Z,27.10
2019-01-11T15:59:02.342Z,29.30
2019-01-11T16:01:32.950Z,21.87
2019-01-11T16:04:09.203Z,32.38
2019-01-11T16:06:44.369Z,28.38
2019-01-11T16:10:01.173Z,25.08
2019-01-11T16:12:41.163Z,32.13
2019-01-11T16:15:26.163Z,37.50
2019-01-11T16:18:00.250Z,45.37
2019-01-11T16:20:30.523Z,34.73
2019-01-11T16:23:00.781Z,37.37
2019-01-11T16:25:31.191Z,43.95
2019-01-11T16:28:02.079Z,37.90
2019-01-11T16:30:32.810Z,40.90
2019-01-11T16:33:03.374Z,42.13
2019-01-11T16:35:33.675Z,46.93
2019-01-11T16:38:03.965Z,47.03
2019-01-11T16:40:34.195Z,40.90
2019-01-11T16:43:04.512Z,39.10
2019-01-11T16:45:35.267Z,31.33
2019-01-11T16:48:05.588Z,41.20
2019-01-11T16:50:35.858Z,50.10
2019-01-11T16:53:10.069Z,42.27
2019-01-11T16:55:40.346Z,38.07
2019-01-11T16:58:10.615Z,41.33
2019-01-11T17:00:41.126Z,40.50
2019-01-11T17:03:11.385Z,40.70
2019-01-11T17:05:41.681Z,37.73
2019-01-11T17:08:11.989Z,47.03
2019-01-11T17:10:42.241Z,38.53
2019-01-11T17:13:13.065Z,63.53
2019-01-11T17:15:43.624Z,54.33
2019-01-11T17:18:13.919Z,47.53
2019-01-11T17:20:44.205Z,47.30
2019-01-11T17:23:15.392Z,41.90
2019-01-11T17:25:45.612Z,47.37
2019-01-11T17:28:17.075Z,37.27
2019-01-11T17:30:47.439Z,38.00
2019-01-11T17:33:17.684Z,44.17
2019-01-11T17:35:47.969Z,48.70
2019-01-11T17:38:18.225Z,50.60
2019-01-11T17:40:48.833Z,55.17
2019-01-11T17:43:19.352Z,39.43
2019-01-11T17:45:49.715Z,42.17
2019-01-11T17:48:20.023Z,53.67
2019-01-11T17:50:50.370Z,51.40
2019-01-11T17:53:20.619Z,46.87
2019-01-11T17:55:50.934Z,42.17
2019-01-11T17:58:21.440Z,49.57
2019-01-11T18:00:51.833Z,47.10
2019-01-11T18:03:22.083Z,44.50
2019-01-11T18:05:52.396Z,41.00
2019-01-11T18:08:22.713Z,43.10
2019-01-11T18:10:53.252Z,51.83
2019-01-11T18:13:23.575Z,50.33
2019-01-11T18:15:54.249Z,52.25
2019-01-11T18:18:24.538Z,46.83
2019-01-11T18:20:54.850Z,51.13
2019-01-11T18:23:25.259Z,45.60
2019-01-11T18:25:55.541Z,52.80
2019-01-11T18:28:25.991Z,56.10
2019-01-11T18:30:56.390Z,58.33
2019-01-11T18:33:26.727Z,50.00
2019-01-11T18:35:57.449Z,54.87
2019-01-11T18:38:27.738Z,65.07
2019-01-11T18:40:57.941Z,46.70
2019-01-11T18:43:28.477Z,41.60
2019-01-11T18:45:58.828Z,55.03
2019-01-11T18:48:29.338Z,46.20
2019-01-11T18:50:59.584Z,43.52
2019-01-11T18:53:29.809Z,48.03
2019-01-11T18:56:05.327Z,55.17
2019-01-11T18:58:32.107Z,55.37
2019-01-11T19:01:02.674Z,53.92
2019-01-11T19:03:32.983Z,57.33
2019-01-11T19:06:03.267Z,50.10
2019-01-11T19:08:33.580Z,41.00
2019-01-11T19:11:04.052Z,50.73
2019-01-11T19:13:34.308Z,54.73
2019-01-11T19:16:04.606Z,47.93
2019-01-11T19:18:34.892Z,54.53
2019-01-11T19:21:08.754Z,48.97
2019-01-11T19:23:39.102Z,54.77
2019-01-11T19:26:09.473Z,57.57
2019-01-11T19:28:39.794Z,51.20
2019-01-11T19:31:10.107Z,57.50
2019-01-11T19:33:40.349Z,53.33
2019-01-11T19:36:10.908Z,54.17
2019-01-11T19:38:41.247Z,57.03
2019-01-11T19:41:11.499Z,48.13
2019-01-11T19:43:41.883Z,52.47
2019-01-11T19:46:12.175Z,47.17
2019-01-11T19:48:42.390Z,45.50
2019-01-11T19:51:12.804Z,57.23
2019-01-11T19:53:43.048Z,57.43
2019-01-11T19:56:13.286Z,51.07
2019-01-11T19:58:43.615Z,49.93
2019-01-11T20:01:13.864Z,54.20
2019-01-11T20:03:44.141Z,49.17
2019-01-11T20:06:14.565Z,53.23
2019-01-11T20:08:44.868Z,60.43
2019-01-11T20:11:15.598Z,50.17
2019-01-11T20:13:45.937Z,44.33
2019-01-11T20:16:16.226Z,56.07
2019-01-11T20:18:46.478Z,44.87
2019-01-11T20:21:17.007Z,54.53
2019-01-11T20:23:47.315Z,61.93
2019-01-11T20:26:17.864Z,58.40
2019-01-11T20:28:48.210Z,53.07
2019-01-11T20:31:18.517Z,60.03
2019-01-11T20:33:49.422Z,67.57
2019-01-11T20:36:19.733Z,46.73
2019-01-11T20:38:49.957Z,56.80
2019-01-11T20:41:20.594Z,56.53
2019-01-11T20:43:50.910Z,45.57
2019-01-11T20:46:21.399Z,58.60
2019-01-11T20:48:51.732Z,50.07
2019-01-11T20:51:22.173Z,54.23
2019-01-11T20:53:52.439Z,45.00
2019-01-11T20:56:22.647Z,57.00
2019-01-11T20:58:53.032Z,48.43
2019-01-11T21:01:23.453Z,53.53
2019-01-11T21:03:54.137Z,50.93
2019-01-11T21:06:24.433Z,53.07
2019-01-11T21:08:54.980Z,48.70
2019-01-11T21:11:25.239Z,53.85
2019-01-11T21:13:55.821Z,40.47
2019-01-11T21:16:26.061Z,53.73
2019-01-11T21:18:56.304Z,51.98
2019-01-11T21:21:26.972Z,54.00
2019-01-11T21:23:57.262Z,52.62
2019-01-11T21:26:27.511Z,56.40
2019-01-11T21:28:57.731Z,49.17
2019-01-11T21:31:27.985Z,50.80
2019-01-11T21:33:58.250Z,55.57
2019-01-11T21:36:28.659Z,56.37
2019-01-11T21:38:58.885Z,44.93
2019-01-11T21:41:29.175Z,51.70
2019-01-11T21:43:59.465Z,67.13
2019-01-11T21:46:29.920Z,50.67
2019-01-11T21:49:00.174Z,50.43
2019-01-11T21:51:31.610Z,50.90
2019-01-11T21:54:03.109Z,52.40
2019-01-11T21:56:33.691Z,50.90
2019-01-11T21:59:03.944Z,59.00
2019-01-11T22:01:34.273Z,46.03
2019-01-11T22:04:04.511Z,60.63
2019-01-11T22:06:34.865Z,46.10
2019-01-11T22:09:08.099Z,53.47
2019-01-11T22:11:38.491Z,55.93
2019-01-11T22:14:09.444Z,50.93
2019-01-11T22:16:39.698Z,44.07
2019-01-11T22:19:10.021Z,52.17
2019-01-11T22:21:40.274Z,42.70
2019-01-11T22:24:10.568Z,49.77
2019-01-11T22:26:40.826Z,54.70
2019-01-11T22:29:11.154Z,42.03
2019-01-11T22:31:41.485Z,45.05
2019-01-11T22:34:11.816Z,47.20
2019-01-11T22:36:42.056Z,46.50
2019-01-11T22:39:12.417Z,53.90
2019-01-11T22:41:43.295Z,46.27
2019-01-11T22:44:13.538Z,57.08
2019-01-11T22:46:43.882Z,38.75
2019-01-11T22:49:14.350Z,41.63
2019-01-11T22:51:44.670Z,43.93
2019-01-11T22:54:14.981Z,43.37
2019-01-11T22:56:45.550Z,44.23
2019-01-11T22:59:15.782Z,47.00
2019-01-11T23:02:28.576Z,45.27
2019-01-11T23:05:00.563Z,50.90
2019-01-11T23:08:00.258Z,41.67
2019-01-11T23:11:28.278Z,43.48
2019-01-11T23:13:58.609Z,39.98
2019-01-11T23:16:43.497Z,44.17
2019-01-11T23:19:14.024Z,51.83
2019-01-11T23:21:44.282Z,48.67
2019-01-11T23:27:00.619Z,46.33
2019-01-11T23:29:31.424Z,48.57
2019-01-11T23:32:01.949Z,41.00
2019-01-11T23:34:32.263Z,44.50
2019-01-11T23:37:47.949Z,37.93
2019-01-11T23:40:18.846Z,60.97
2019-01-11T23:42:49.116Z,56.93
2019-01-11T23:45:19.506Z,43.80
2019-01-11T23:47:49.848Z,45.45
2019-01-11T23:50:20.082Z,41.40
2019-01-11T23:52:50.370Z,47.03
2019-01-11T23:55:20.742Z,51.63
2019-01-11T23:57:51.343Z,45.30
